Terminal Aerodrome Forecast
Issued by NWS Wichita, KS

Home | Current Version | Previous Version | Graphics & Text | Print | Product List | Glossary Off
Versions: 1 2 3 4 5 6 7 8 9 10 11 12 13 14 15 16

278
FTUS43 KICT 191434 AAB
TAFICT
TAF AMD
KICT 191434Z 1915/2012 15011KT 1SM BR OVC003
      TEMPO 1915/1916 1/4SM FG VV002
     FM191800 17012KT P6SM SCT003 OVC012
     FM200000 16014KT P6SM VCSH BKN015
     FM200300 15013KT 4SM -SHRA VCTS OVC010CB
     FM200600 17014KT P6SM OVC008=

USA.gov is the U.S. government's official web portal to all federal, state and local government web resources and services.